createdAt,value
2022-11-05T00:03:12.411Z,96893.56
2022-11-05T00:13:37.519Z,96939.66
2022-11-05T00:24:02.299Z,96963.59
2022-11-05T00:34:08.624Z,96990.75
2022-11-05T00:44:33.663Z,97010.50
2022-11-05T00:54:39.951Z,97020.66
2022-11-05T01:04:46.662Z,97015.69
2022-11-05T01:14:52.977Z,97017.56
2022-11-05T01:24:59.245Z,97024.19
2022-11-05T01:35:11.404Z,97024.78
2022-11-05T01:45:18.944Z,97031.88
2022-11-05T01:55:28.324Z,97075.56
2022-11-05T02:05:35.353Z,97083.59
2022-11-05T02:15:50.250Z,97109.81
2022-11-05T02:26:29.670Z,97120.25
2022-11-05T02:37:01.055Z,97129.50
2022-11-05T02:47:18.351Z,97141.72
2022-11-05T02:57:24.907Z,97147.97
2022-11-05T03:07:37.219Z,97182.13
2022-11-05T03:18:15.144Z,97184.88
2022-11-05T03:28:23.804Z,97206.44
2022-11-05T03:38:34.409Z,97211.22
2022-11-05T03:48:44.450Z,97228.66
2022-11-05T03:58:54.748Z,97239.53
2022-11-05T04:09:22.428Z,97256.50
2022-11-05T04:19:47.277Z,97260.41
2022-11-05T04:30:11.984Z,97225.97
2022-11-05T04:40:18.260Z,97219.22
2022-11-05T04:50:25.052Z,97204.97
2022-11-05T05:00:31.463Z,97228.06
2022-11-05T05:10:38.039Z,97191.41
2022-11-05T05:21:03.077Z,97191.09
2022-11-05T05:31:09.432Z,97210.16
2022-11-05T05:41:15.851Z,97243.44
2022-11-05T05:51:22.112Z,97197.34
2022-11-05T06:01:28.435Z,97183.13
2022-11-05T06:11:35.209Z,97202.53
2022-11-05T06:21:41.520Z,97226.97
2022-11-05T06:31:47.841Z,97305.97
2022-11-05T06:42:17.042Z,97329.62
2022-11-05T06:52:21.020Z,97360.22
2022-11-05T07:02:27.365Z,97396.97
2022-11-05T07:12:33.872Z,97419.13
2022-11-05T07:22:40.188Z,97445.84
2022-11-05T07:32:46.453Z,97461.19
2022-11-05T07:42:56.659Z,97485.22
2022-11-05T07:53:09.307Z,97502.63
2022-11-05T08:03:18.252Z,97511.31
2022-11-05T08:13:24.856Z,97515.56
2022-11-05T08:23:31.984Z,97531.53
2022-11-05T08:33:38.509Z,97547.94
2022-11-05T08:43:44.819Z,97558.16
2022-11-05T08:53:51.060Z,97564.53
2022-11-05T09:03:57.339Z,97618.66
2022-11-05T09:14:03.874Z,97632.03
2022-11-05T09:24:10.148Z,97588.16
2022-11-05T09:34:16.429Z,97611.75
2022-11-05T09:44:39.664Z,97622.75
2022-11-05T09:54:47.203Z,97651.34
2022-11-05T10:04:57.217Z,97654.47
2022-11-05T10:15:17.456Z,97676.06
2022-11-05T10:25:26.364Z,97693.38
2022-11-05T10:35:34.897Z,97715.16
2022-11-05T10:45:41.112Z,97714.50
2022-11-05T10:55:50.146Z,97725.53
2022-11-05T11:06:12.960Z,97739.28
2022-11-05T11:16:24.912Z,97758.41
2022-11-05T11:26:34.870Z,97764.94
2022-11-05T11:36:45.752Z,97773.47
2022-11-05T11:46:53.612Z,97790.00
2022-11-05T11:56:59.987Z,97795.81
2022-11-05T12:07:21.583Z,97799.41
2022-11-05T12:17:49.460Z,97813.28
2022-11-05T12:28:29.803Z,97829.50
2022-11-05T12:38:49.432Z,97853.50
2022-11-05T12:49:01.630Z,97874.97
2022-11-05T12:59:17.359Z,97886.09
2022-11-05T13:09:31.535Z,97906.03
2022-11-05T13:19:42.488Z,97930.97
2022-11-05T13:29:54.649Z,97946.50
2022-11-05T13:40:05.041Z,97969.06
2022-11-05T13:50:40.079Z,97984.59
2022-11-05T14:01:18.799Z,97986.28
2022-11-05T14:11:36.764Z,98004.06
2022-11-05T14:21:54.184Z,98021.84
2022-11-05T14:32:09.749Z,98055.69
2022-11-05T14:42:16.067Z,98073.91
2022-11-05T14:52:22.569Z,98094.81
2022-11-05T15:02:34.886Z,98097.84
2022-11-05T15:12:48.032Z,98127.94
2022-11-05T15:22:59.343Z,98145.00
2022-11-05T15:33:10.854Z,98151.63
2022-11-05T15:43:18.831Z,98169.97
2022-11-05T15:54:02.266Z,98188.78
2022-11-05T16:04:16.199Z,98194.09
2022-11-05T16:14:22.507Z,98195.37
2022-11-05T16:24:29.537Z,98212.56
2022-11-05T16:34:40.770Z,98230.44
2022-11-05T16:44:47.124Z,98240.81
2022-11-05T16:54:53.392Z,98268.84
2022-11-05T17:04:59.747Z,98288.63
2022-11-05T17:15:25.197Z,98300.53
2022-11-05T17:25:31.854Z,98297.19
2022-11-05T17:35:42.139Z,98294.84
2022-11-05T17:45:59.975Z,98299.94
2022-11-05T17:56:14.638Z,98325.31
2022-11-05T18:06:23.344Z,98329.28
2022-11-05T18:16:29.671Z,98339.56
2022-11-05T18:26:36.291Z,98355.88
2022-11-05T18:36:44.730Z,98344.81
2022-11-05T18:46:58.233Z,98365.62
2022-11-05T18:57:04.914Z,98383.41
2022-11-05T19:07:11.223Z,98380.22
2022-11-05T19:17:17.515Z,98410.72
2022-11-05T19:27:24.433Z,98416.63
2022-11-05T19:37:30.711Z,98436.00
2022-11-05T19:47:37.031Z,98447.25
2022-11-05T19:57:43.297Z,98459.88
2022-11-05T20:07:53.121Z,98471.06
2022-11-05T20:18:00.043Z,98489.84
2022-11-05T20:28:06.809Z,98494.50
2022-11-05T20:38:13.294Z,98498.00
2022-11-05T20:48:19.979Z,98511.03
2022-11-05T20:58:26.339Z,98525.94
2022-11-05T21:08:33.459Z,98544.06
2022-11-05T21:18:40.568Z,98542.97
2022-11-05T21:28:46.864Z,98535.13
2022-11-05T21:38:53.178Z,98548.38
2022-11-05T21:48:59.446Z,98554.53
2022-11-05T21:59:24.900Z,98547.75
2022-11-05T22:09:31.435Z,98553.13
2022-11-05T22:19:38.104Z,98550.12
2022-11-05T22:29:44.645Z,98565.16
2022-11-05T22:39:50.899Z,98571.41
2022-11-05T22:49:57.192Z,98566.72
2022-11-05T23:00:03.533Z,98563.75
2022-11-05T23:10:28.885Z,98566.50
2022-11-05T23:20:52.748Z,98569.09
2022-11-05T23:31:17.566Z,98574.16
2022-11-05T23:41:42.431Z,98585.56
2022-11-05T23:51:48.698Z,98587.22
